sensor_id;sensor_type;location;lat;lon;timestamp;P1;durP1;ratioP1;P2;durP2;ratioP2
9128;SDS011;4599;50.906;6.786;2023-12-22T00:00:28;8.40;;;1.47;;
9128;SDS011;4599;50.906;6.786;2023-12-22T00:04:30;4.33;;;1.10;;
9128;SDS011;4599;50.906;6.786;2023-12-22T00:08:32;4.77;;;1.23;;
9128;SDS011;4599;50.906;6.786;2023-12-22T00:12:34;3.73;;;1.30;;
9128;SDS011;4599;50.906;6.786;2023-12-22T00:16:36;4.17;;;1.03;;
9128;SDS011;4599;50.906;6.786;2023-12-22T00:20:40;5.07;;;1.30;;
9128;SDS011;4599;50.906;6.786;2023-12-22T00:24:42;5.67;;;1.30;;
9128;SDS011;4599;50.906;6.786;2023-12-22T00:28:45;7.23;;;1.33;;
9128;SDS011;4599;50.906;6.786;2023-12-22T00:32:46;4.17;;;1.40;;
9128;SDS011;4599;50.906;6.786;2023-12-22T00:36:48;8.47;;;1.10;;
9128;SDS011;4599;50.906;6.786;2023-12-22T00:40:49;5.57;;;1.20;;
9128;SDS011;4599;50.906;6.786;2023-12-22T00:44:52;5.90;;;1.30;;
9128;SDS011;4599;50.906;6.786;2023-12-22T00:48:54;6.73;;;1.63;;
9128;SDS011;4599;50.906;6.786;2023-12-22T00:52:55;2.33;;;1.27;;
9128;SDS011;4599;50.906;6.786;2023-12-22T00:56:57;5.47;;;1.40;;
9128;SDS011;4599;50.906;6.786;2023-12-22T01:01:00;6.40;;;1.30;;
9128;SDS011;4599;50.906;6.786;2023-12-22T01:05:02;7.90;;;1.50;;
9128;SDS011;4599;50.906;6.786;2023-12-22T01:09:04;4.83;;;1.50;;
9128;SDS011;4599;50.906;6.786;2023-12-22T01:13:06;6.43;;;1.23;;
9128;SDS011;4599;50.906;6.786;2023-12-22T01:17:09;7.90;;;1.30;;
9128;SDS011;4599;50.906;6.786;2023-12-22T01:21:10;5.80;;;1.50;;
9128;SDS011;4599;50.906;6.786;2023-12-22T01:25:12;6.20;;;1.50;;
9128;SDS011;4599;50.906;6.786;2023-12-22T01:29:13;8.37;;;1.50;;
9128;SDS011;4599;50.906;6.786;2023-12-22T01:33:16;8.33;;;1.80;;
9128;SDS011;4599;50.906;6.786;2023-12-22T01:37:18;10.87;;;1.80;;
9128;SDS011;4599;50.906;6.786;2023-12-22T01:41:19;6.63;;;1.50;;
9128;SDS011;4599;50.906;6.786;2023-12-22T01:45:21;12.63;;;2.13;;
9128;SDS011;4599;50.906;6.786;2023-12-22T01:49:24;9.57;;;1.87;;
9128;SDS011;4599;50.906;6.786;2023-12-22T01:53:25;10.13;;;2.07;;
9128;SDS011;4599;50.906;6.786;2023-12-22T01:57:28;9.27;;;1.67;;
9128;SDS011;4599;50.906;6.786;2023-12-22T02:01:30;12.23;;;1.50;;
9128;SDS011;4599;50.906;6.786;2023-12-22T02:05:34;5.53;;;1.50;;
9128;SDS011;4599;50.906;6.786;2023-12-22T02:09:36;10.07;;;2.03;;
9128;SDS011;4599;50.906;6.786;2023-12-22T02:13:38;9.50;;;1.60;;
9128;SDS011;4599;50.906;6.786;2023-12-22T02:17:43;12.13;;;1.80;;
9128;SDS011;4599;50.906;6.786;2023-12-22T02:22:03;8.07;;;2.30;;
9128;SDS011;4599;50.906;6.786;2023-12-22T02:26:12;15.47;;;2.30;;
9128;SDS011;4599;50.906;6.786;2023-12-22T02:30:24;13.30;;;2.73;;
9128;SDS011;4599;50.906;6.786;2023-12-22T02:34:27;11.93;;;2.83;;
9128;SDS011;4599;50.906;6.786;2023-12-22T02:38:30;17.13;;;2.57;;
9128;SDS011;4599;50.906;6.786;2023-12-22T02:42:35;11.33;;;2.73;;
9128;SDS011;4599;50.906;6.786;2023-12-22T02:46:37;10.87;;;2.13;;
9128;SDS011;4599;50.906;6.786;2023-12-22T02:50:39;16.27;;;2.80;;
9128;SDS011;4599;50.906;6.786;2023-12-22T02:54:40;10.67;;;2.33;;
9128;SDS011;4599;50.906;6.786;2023-12-22T02:58:43;10.83;;;2.20;;
9128;SDS011;4599;50.906;6.786;2023-12-22T03:02:45;10.07;;;2.47;;
9128;SDS011;4599;50.906;6.786;2023-12-22T03:06:46;12.87;;;2.60;;
9128;SDS011;4599;50.906;6.786;2023-12-22T03:10:48;12.87;;;2.17;;
9128;SDS011;4599;50.906;6.786;2023-12-22T03:14:51;14.73;;;2.40;;
9128;SDS011;4599;50.906;6.786;2023-12-22T03:18:52;16.23;;;2.10;;
9128;SDS011;4599;50.906;6.786;2023-12-22T03:22:54;12.90;;;2.57;;
9128;SDS011;4599;50.906;6.786;2023-12-22T03:26:55;18.53;;;2.70;;
9128;SDS011;4599;50.906;6.786;2023-12-22T03:30:58;17.73;;;2.90;;
9128;SDS011;4599;50.906;6.786;2023-12-22T03:35:00;12.20;;;2.67;;
9128;SDS011;4599;50.906;6.786;2023-12-22T03:39:02;19.40;;;3.27;;
9128;SDS011;4599;50.906;6.786;2023-12-22T03:43:04;14.77;;;2.33;;
9128;SDS011;4599;50.906;6.786;2023-12-22T03:47:07;19.50;;;3.20;;
9128;SDS011;4599;50.906;6.786;2023-12-22T03:51:08;17.27;;;2.53;;
9128;SDS011;4599;50.906;6.786;2023-12-22T03:55:10;10.77;;;2.30;;
9128;SDS011;4599;50.906;6.786;2023-12-22T03:59:11;11.57;;;2.07;;
9128;SDS011;4599;50.906;6.786;2023-12-22T04:03:14;10.93;;;2.27;;
9128;SDS011;4599;50.906;6.786;2023-12-22T04:07:15;9.63;;;2.27;;
9128;SDS011;4599;50.906;6.786;2023-12-22T04:11:17;10.70;;;2.33;;
9128;SDS011;4599;50.906;6.786;2023-12-22T04:15:18;7.70;;;1.80;;
9128;SDS011;4599;50.906;6.786;2023-12-22T04:19:21;10.37;;;1.80;;
9128;SDS011;4599;50.906;6.786;2023-12-22T04:23:23;10.77;;;1.73;;
9128;SDS011;4599;50.906;6.786;2023-12-22T04:27:25;9.23;;;1.90;;
9128;SDS011;4599;50.906;6.786;2023-12-22T04:31:26;11.57;;;2.40;;
9128;SDS011;4599;50.906;6.786;2023-12-22T04:35:29;10.63;;;2.37;;
9128;SDS011;4599;50.906;6.786;2023-12-22T04:39:31;12.80;;;1.77;;
9128;SDS011;4599;50.906;6.786;2023-12-22T04:43:32;11.13;;;1.87;;
9128;SDS011;4599;50.906;6.786;2023-12-22T04:47:34;13.23;;;2.43;;
9128;SDS011;4599;50.906;6.786;2023-12-22T04:51:37;10.20;;;2.50;;
9128;SDS011;4599;50.906;6.786;2023-12-22T04:55:38;12.33;;;2.10;;
9128;SDS011;4599;50.906;6.786;2023-12-22T04:59:40;15.13;;;2.30;;
9128;SDS011;4599;50.906;6.786;2023-12-22T05:03:41;11.67;;;2.77;;
9128;SDS011;4599;50.906;6.786;2023-12-22T05:07:44;11.57;;;2.37;;
9128;SDS011;4599;50.906;6.786;2023-12-22T05:11:46;12.10;;;2.30;;
9128;SDS011;4599;50.906;6.786;2023-12-22T05:15:47;12.73;;;2.13;;
9128;SDS011;4599;50.906;6.786;2023-12-22T05:19:49;13.77;;;2.40;;
9128;SDS011;4599;50.906;6.786;2023-12-22T05:23:51;10.80;;;2.70;;
9128;SDS011;4599;50.906;6.786;2023-12-22T05:27:53;12.37;;;2.43;;
9128;SDS011;4599;50.906;6.786;2023-12-22T05:31:54;15.70;;;2.37;;
9128;SDS011;4599;50.906;6.786;2023-12-22T05:35:56;12.77;;;2.43;;
9128;SDS011;4599;50.906;6.786;2023-12-22T05:39:59;15.83;;;2.77;;
9128;SDS011;4599;50.906;6.786;2023-12-22T05:44:01;17.57;;;2.70;;
9128;SDS011;4599;50.906;6.786;2023-12-22T05:48:03;12.90;;;2.43;;
9128;SDS011;4599;50.906;6.786;2023-12-22T05:52:05;17.10;;;2.93;;
9128;SDS011;4599;50.906;6.786;2023-12-22T05:56:17;16.13;;;2.80;;
9128;SDS011;4599;50.906;6.786;2023-12-22T06:00:19;9.50;;;2.47;;
9128;SDS011;4599;50.906;6.786;2023-12-22T06:04:21;11.60;;;2.17;;
9128;SDS011;4599;50.906;6.786;2023-12-22T06:08:22;10.63;;;2.47;;
9128;SDS011;4599;50.906;6.786;2023-12-22T06:12:25;14.73;;;2.67;;
9128;SDS011;4599;50.906;6.786;2023-12-22T06:16:27;9.83;;;2.53;;
9128;SDS011;4599;50.906;6.786;2023-12-22T06:20:28;14.17;;;2.63;;
9128;SDS011;4599;50.906;6.786;2023-12-22T06:24:30;14.40;;;2.53;;
9128;SDS011;4599;50.906;6.786;2023-12-22T06:28:33;13.43;;;2.57;;
9128;SDS011;4599;50.906;6.786;2023-12-22T06:32:35;12.17;;;2.10;;
9128;SDS011;4599;50.906;6.786;2023-12-22T06:36:36;9.83;;;2.23;;
9128;SDS011;4599;50.906;6.786;2023-12-22T06:40:38;14.17;;;2.40;;
9128;SDS011;4599;50.906;6.786;2023-12-22T06:44:42;8.40;;;1.87;;
9128;SDS011;4599;50.906;6.786;2023-12-22T06:48:44;9.30;;;1.80;;
9128;SDS011;4599;50.906;6.786;2023-12-22T06:52:46;7.90;;;1.80;;
9128;SDS011;4599;50.906;6.786;2023-12-22T06:56:47;5.60;;;1.47;;
9128;SDS011;4599;50.906;6.786;2023-12-22T07:00:50;7.00;;;1.50;;
9128;SDS011;4599;50.906;6.786;2023-12-22T07:09:31;12.53;;;2.47;;
9128;SDS011;4599;50.906;6.786;2023-12-22T07:13:33;13.47;;;2.27;;
9128;SDS011;4599;50.906;6.786;2023-12-22T07:17:36;12.93;;;2.40;;
9128;SDS011;4599;50.906;6.786;2023-12-22T07:21:37;7.80;;;1.90;;
9128;SDS011;4599;50.906;6.786;2023-12-22T07:25:39;10.33;;;2.60;;
9128;SDS011;4599;50.906;6.786;2023-12-22T07:29:41;12.77;;;2.67;;
9128;SDS011;4599;50.906;6.786;2023-12-22T07:33:43;15.03;;;3.10;;
9128;SDS011;4599;50.906;6.786;2023-12-22T07:37:45;14.73;;;3.07;;
9128;SDS011;4599;50.906;6.786;2023-12-22T07:41:47;17.00;;;3.57;;
9128;SDS011;4599;50.906;6.786;2023-12-22T07:45:48;21.07;;;3.90;;
9128;SDS011;4599;50.906;6.786;2023-12-22T07:49:51;22.47;;;4.60;;
9128;SDS011;4599;50.906;6.786;2023-12-22T07:53:53;23.97;;;4.30;;
9128;SDS011;4599;50.906;6.786;2023-12-22T07:57:54;23.80;;;4.70;;
9128;SDS011;4599;50.906;6.786;2023-12-22T08:01:56;33.00;;;4.43;;
9128;SDS011;4599;50.906;6.786;2023-12-22T08:05:59;24.27;;;5.23;;
9128;SDS011;4599;50.906;6.786;2023-12-22T08:10:01;25.50;;;4.93;;
9128;SDS011;4599;50.906;6.786;2023-12-22T08:14:03;26.53;;;4.57;;
9128;SDS011;4599;50.906;6.786;2023-12-22T08:18:05;25.50;;;4.40;;
9128;SDS011;4599;50.906;6.786;2023-12-22T08:22:08;24.33;;;5.40;;
9128;SDS011;4599;50.906;6.786;2023-12-22T08:26:10;28.77;;;5.17;;
9128;SDS011;4599;50.906;6.786;2023-12-22T08:30:12;26.83;;;5.27;;
9128;SDS011;4599;50.906;6.786;2023-12-22T08:34:15;25.07;;;3.63;;
9128;SDS011;4599;50.906;6.786;2023-12-22T08:38:17;27.83;;;5.17;;
9128;SDS011;4599;50.906;6.786;2023-12-22T08:42:19;26.23;;;4.90;;
9128;SDS011;4599;50.906;6.786;2023-12-22T08:46:21;24.33;;;5.07;;
9128;SDS011;4599;50.906;6.786;2023-12-22T08:50:22;22.27;;;4.30;;
9128;SDS011;4599;50.906;6.786;2023-12-22T08:54:25;25.23;;;4.27;;
9128;SDS011;4599;50.906;6.786;2023-12-22T08:58:27;22.87;;;4.03;;
9128;SDS011;4599;50.906;6.786;2023-12-22T09:02:29;23.77;;;4.27;;
9128;SDS011;4599;50.906;6.786;2023-12-22T09:06:30;23.30;;;4.50;;
9128;SDS011;4599;50.906;6.786;2023-12-22T09:10:33;24.00;;;4.70;;
9128;SDS011;4599;50.906;6.786;2023-12-22T09:14:35;16.47;;;3.93;;
9128;SDS011;4599;50.906;6.786;2023-12-22T09:18:36;21.27;;;4.70;;
9128;SDS011;4599;50.906;6.786;2023-12-22T09:22:38;21.50;;;4.20;;
9128;SDS011;4599;50.906;6.786;2023-12-22T09:26:41;22.70;;;4.30;;
9128;SDS011;4599;50.906;6.786;2023-12-22T09:30:42;20.97;;;3.77;;
9128;SDS011;4599;50.906;6.786;2023-12-22T09:34:44;19.83;;;3.47;;
9128;SDS011;4599;50.906;6.786;2023-12-22T09:38:46;13.00;;;2.93;;
9128;SDS011;4599;50.906;6.786;2023-12-22T09:42:49;13.13;;;3.00;;
9128;SDS011;4599;50.906;6.786;2023-12-22T09:46:57;17.20;;;3.27;;
9128;SDS011;4599;50.906;6.786;2023-12-22T09:51:00;9.83;;;3.03;;
9128;SDS011;4599;50.906;6.786;2023-12-22T09:55:03;10.87;;;2.43;;
9128;SDS011;4599;50.906;6.786;2023-12-22T09:59:08;7.33;;;2.30;;
9128;SDS011;4599;50.906;6.786;2023-12-22T10:03:12;12.43;;;2.70;;
9128;SDS011;4599;50.906;6.786;2023-12-22T10:07:13;9.43;;;2.43;;
9128;SDS011;4599;50.906;6.786;2023-12-22T10:11:15;6.43;;;2.30;;
9128;SDS011;4599;50.906;6.786;2023-12-22T10:15:19;6.67;;;1.57;;
9128;SDS011;4599;50.906;6.786;2023-12-22T10:19:23;6.70;;;1.60;;
9128;SDS011;4599;50.906;6.786;2023-12-22T10:23:25;6.67;;;1.70;;
9128;SDS011;4599;50.906;6.786;2023-12-22T10:27:26;5.33;;;1.60;;
9128;SDS011;4599;50.906;6.786;2023-12-22T10:31:38;7.13;;;1.80;;
9128;SDS011;4599;50.906;6.786;2023-12-22T10:35:41;7.90;;;2.10;;
9128;SDS011;4599;50.906;6.786;2023-12-22T10:39:43;8.03;;;2.07;;
9128;SDS011;4599;50.906;6.786;2023-12-22T10:43:45;6.73;;;2.23;;
9128;SDS011;4599;50.906;6.786;2023-12-22T10:47:49;5.43;;;1.70;;
9128;SDS011;4599;50.906;6.786;2023-12-22T10:51:51;4.60;;;2.10;;
9128;SDS011;4599;50.906;6.786;2023-12-22T10:55:53;6.77;;;1.77;;
9128;SDS011;4599;50.906;6.786;2023-12-22T10:59:55;5.03;;;1.93;;
9128;SDS011;4599;50.906;6.786;2023-12-22T11:04:01;4.00;;;1.70;;
9128;SDS011;4599;50.906;6.786;2023-12-22T11:08:03;3.90;;;1.90;;
9128;SDS011;4599;50.906;6.786;2023-12-22T11:12:10;4.60;;;1.60;;
9128;SDS011;4599;50.906;6.786;2023-12-22T11:16:12;5.10;;;1.80;;
9128;SDS011;4599;50.906;6.786;2023-12-22T11:20:18;5.27;;;2.20;;
9128;SDS011;4599;50.906;6.786;2023-12-22T11:24:19;5.27;;;1.80;;
9128;SDS011;4599;50.906;6.786;2023-12-22T11:28:22;4.10;;;2.00;;
9128;SDS011;4599;50.906;6.786;2023-12-22T11:32:24;7.90;;;2.00;;
9128;SDS011;4599;50.906;6.786;2023-12-22T11:36:29;5.30;;;1.80;;
9128;SDS011;4599;50.906;6.786;2023-12-22T11:40:32;3.63;;;1.70;;
9128;SDS011;4599;50.906;6.786;2023-12-22T11:44:34;3.40;;;1.83;;
9128;SDS011;4599;50.906;6.786;2023-12-22T11:48:37;5.03;;;1.50;;
9128;SDS011;4599;50.906;6.786;2023-12-22T11:52:40;4.53;;;1.70;;
9128;SDS011;4599;50.906;6.786;2023-12-22T11:56:42;3.13;;;1.73;;
9128;SDS011;4599;50.906;6.786;2023-12-22T12:00:43;3.03;;;1.50;;
9128;SDS011;4599;50.906;6.786;2023-12-22T12:04:46;3.07;;;1.30;;
9128;SDS011;4599;50.906;6.786;2023-12-22T12:08:50;4.27;;;1.90;;
9128;SDS011;4599;50.906;6.786;2023-12-22T12:13:03;2.77;;;1.40;;
9128;SDS011;4599;50.906;6.786;2023-12-22T12:17:06;3.70;;;1.43;;
9128;SDS011;4599;50.906;6.786;2023-12-22T12:21:10;4.63;;;1.30;;
9128;SDS011;4599;50.906;6.786;2023-12-22T12:25:13;4.90;;;1.40;;
9128;SDS011;4599;50.906;6.786;2023-12-22T12:29:26;4.53;;;1.57;;
9128;SDS011;4599;50.906;6.786;2023-12-22T12:33:30;2.50;;;1.17;;
9128;SDS011;4599;50.906;6.786;2023-12-22T12:37:32;3.60;;;1.20;;
9128;SDS011;4599;50.906;6.786;2023-12-22T12:41:36;6.17;;;1.53;;
9128;SDS011;4599;50.906;6.786;2023-12-22T12:45:41;5.10;;;1.40;;
9128;SDS011;4599;50.906;6.786;2023-12-22T12:49:43;3.17;;;1.13;;
9128;SDS011;4599;50.906;6.786;2023-12-22T12:53:45;5.40;;;1.23;;
9128;SDS011;4599;50.906;6.786;2023-12-22T12:57:49;5.10;;;1.47;;
9128;SDS011;4599;50.906;6.786;2023-12-22T13:01:51;5.57;;;1.37;;
9128;SDS011;4599;50.906;6.786;2023-12-22T13:06:00;3.77;;;1.27;;
9128;SDS011;4599;50.906;6.786;2023-12-22T13:10:18;5.37;;;1.30;;
9128;SDS011;4599;50.906;6.786;2023-12-22T13:14:25;5.53;;;1.27;;
9128;SDS011;4599;50.906;6.786;2023-12-22T13:18:27;2.80;;;1.17;;
9128;SDS011;4599;50.906;6.786;2023-12-22T13:22:28;5.23;;;1.40;;
9128;SDS011;4599;50.906;6.786;2023-12-22T13:26:30;6.13;;;1.57;;
9128;SDS011;4599;50.906;6.786;2023-12-22T13:30:33;8.77;;;1.50;;
9128;SDS011;4599;50.906;6.786;2023-12-22T13:34:35;5.47;;;1.30;;
9128;SDS011;4599;50.906;6.786;2023-12-22T13:38:36;5.80;;;1.33;;
9128;SDS011;4599;50.906;6.786;2023-12-22T13:42:38;5.03;;;1.53;;
9128;SDS011;4599;50.906;6.786;2023-12-22T13:46:41;8.63;;;1.70;;
9128;SDS011;4599;50.906;6.786;2023-12-22T13:50:46;5.23;;;1.40;;
9128;SDS011;4599;50.906;6.786;2023-12-22T13:54:57;4.03;;;1.30;;
9128;SDS011;4599;50.906;6.786;2023-12-22T13:58:58;3.93;;;1.50;;
9128;SDS011;4599;50.906;6.786;2023-12-22T14:03:02;5.37;;;1.33;;
9128;SDS011;4599;50.906;6.786;2023-12-22T14:07:03;5.43;;;1.70;;
9128;SDS011;4599;50.906;6.786;2023-12-22T14:11:05;5.87;;;1.50;;
9128;SDS011;4599;50.906;6.786;2023-12-22T14:15:07;6.60;;;1.40;;
9128;SDS011;4599;50.906;6.786;2023-12-22T14:19:10;6.80;;;1.40;;
9128;SDS011;4599;50.906;6.786;2023-12-22T14:23:12;4.13;;;1.20;;
9128;SDS011;4599;50.906;6.786;2023-12-22T14:27:15;6.27;;;1.37;;
9128;SDS011;4599;50.906;6.786;2023-12-22T14:31:16;5.53;;;1.40;;
9128;SDS011;4599;50.906;6.786;2023-12-22T14:35:19;4.30;;;1.30;;
9128;SDS011;4599;50.906;6.786;2023-12-22T14:39:21;4.83;;;1.37;;
9128;SDS011;4599;50.906;6.786;2023-12-22T14:43:22;6.27;;;1.63;;
9128;SDS011;4599;50.906;6.786;2023-12-22T14:47:24;6.73;;;1.60;;
9128;SDS011;4599;50.906;6.786;2023-12-22T14:51:27;3.53;;;1.30;;
9128;SDS011;4599;50.906;6.786;2023-12-22T14:55:29;5.23;;;1.40;;
9128;SDS011;4599;50.906;6.786;2023-12-22T14:59:31;9.03;;;1.53;;
9128;SDS011;4599;50.906;6.786;2023-12-22T15:03:33;6.50;;;1.30;;
9128;SDS011;4599;50.906;6.786;2023-12-22T15:07:36;5.87;;;1.40;;
9128;SDS011;4599;50.906;6.786;2023-12-22T15:11:40;5.63;;;1.10;;
9128;SDS011;4599;50.906;6.786;2023-12-22T15:15:42;5.07;;;1.53;;
9128;SDS011;4599;50.906;6.786;2023-12-22T15:19:43;4.13;;;1.40;;
9128;SDS011;4599;50.906;6.786;2023-12-22T15:23:46;3.60;;;1.57;;
9128;SDS011;4599;50.906;6.786;2023-12-22T15:27:48;6.90;;;1.87;;
9128;SDS011;4599;50.906;6.786;2023-12-22T15:31:50;7.17;;;1.67;;
9128;SDS011;4599;50.906;6.786;2023-12-22T15:35:53;5.90;;;1.40;;
9128;SDS011;4599;50.906;6.786;2023-12-22T15:39:57;8.90;;;1.93;;
9128;SDS011;4599;50.906;6.786;2023-12-22T15:43:59;6.80;;;1.50;;
9128;SDS011;4599;50.906;6.786;2023-12-22T15:48:01;9.57;;;1.80;;
9128;SDS011;4599;50.906;6.786;2023-12-22T15:52:02;8.50;;;1.90;;
9128;SDS011;4599;50.906;6.786;2023-12-22T15:56:06;8.47;;;1.90;;
9128;SDS011;4599;50.906;6.786;2023-12-22T16:00:09;7.17;;;1.70;;
9128;SDS011;4599;50.906;6.786;2023-12-22T16:04:11;5.37;;;1.47;;
9128;SDS011;4599;50.906;6.786;2023-12-22T16:08:13;4.03;;;1.40;;
9128;SDS011;4599;50.906;6.786;2023-12-22T16:12:16;8.27;;;1.73;;
9128;SDS011;4599;50.906;6.786;2023-12-22T16:16:18;5.33;;;1.43;;
9128;SDS011;4599;50.906;6.786;2023-12-22T16:20:20;9.30;;;1.83;;
9128;SDS011;4599;50.906;6.786;2023-12-22T16:24:22;4.83;;;1.63;;
9128;SDS011;4599;50.906;6.786;2023-12-22T16:28:25;7.90;;;1.83;;
9128;SDS011;4599;50.906;6.786;2023-12-22T16:32:27;6.00;;;1.70;;
9128;SDS011;4599;50.906;6.786;2023-12-22T16:36:29;8.33;;;1.80;;
9128;SDS011;4599;50.906;6.786;2023-12-22T16:40:31;8.23;;;1.70;;
9128;SDS011;4599;50.906;6.786;2023-12-22T16:44:35;11.43;;;1.70;;
9128;SDS011;4599;50.906;6.786;2023-12-22T16:48:37;5.80;;;1.53;;
9128;SDS011;4599;50.906;6.786;2023-12-22T16:52:39;3.77;;;1.53;;
9128;SDS011;4599;50.906;6.786;2023-12-22T16:56:41;6.73;;;1.73;;
9128;SDS011;4599;50.906;6.786;2023-12-22T17:00:43;8.23;;;2.00;;
9128;SDS011;4599;50.906;6.786;2023-12-22T17:05:05;7.73;;;1.90;;
9128;SDS011;4599;50.906;6.786;2023-12-22T17:09:07;7.77;;;1.90;;
9128;SDS011;4599;50.906;6.786;2023-12-22T17:13:09;10.03;;;1.97;;
9128;SDS011;4599;50.906;6.786;2023-12-22T17:17:12;8.37;;;1.50;;
9128;SDS011;4599;50.906;6.786;2023-12-22T17:21:14;7.87;;;1.70;;
9128;SDS011;4599;50.906;6.786;2023-12-22T17:25:15;7.13;;;1.93;;
9128;SDS011;4599;50.906;6.786;2023-12-22T17:29:17;7.03;;;1.93;;
9128;SDS011;4599;50.906;6.786;2023-12-22T17:33:20;9.80;;;2.30;;
9128;SDS011;4599;50.906;6.786;2023-12-22T17:37:22;6.93;;;1.60;;
9128;SDS011;4599;50.906;6.786;2023-12-22T17:41:24;6.63;;;1.60;;
9128;SDS011;4599;50.906;6.786;2023-12-22T17:45:26;7.93;;;1.50;;
9128;SDS011;4599;50.906;6.786;2023-12-22T17:49:28;5.40;;;2.23;;
9128;SDS011;4599;50.906;6.786;2023-12-22T17:53:30;9.47;;;1.80;;
9128;SDS011;4599;50.906;6.786;2023-12-22T17:57:31;6.17;;;1.47;;
9128;SDS011;4599;50.906;6.786;2023-12-22T18:01:33;5.63;;;1.37;;
9128;SDS011;4599;50.906;6.786;2023-12-22T18:05:36;7.43;;;1.60;;
9128;SDS011;4599;50.906;6.786;2023-12-22T18:09:38;8.93;;;1.90;;
9128;SDS011;4599;50.906;6.786;2023-12-22T18:13:39;6.90;;;1.60;;
9128;SDS011;4599;50.906;6.786;2023-12-22T18:17:41;6.13;;;1.60;;
9128;SDS011;4599;50.906;6.786;2023-12-22T18:21:44;6.83;;;1.70;;
9128;SDS011;4599;50.906;6.786;2023-12-22T18:25:46;9.40;;;1.90;;
9128;SDS011;4599;50.906;6.786;2023-12-22T18:29:47;5.90;;;1.80;;
9128;SDS011;4599;50.906;6.786;2023-12-22T18:33:49;5.27;;;1.70;;
9128;SDS011;4599;50.906;6.786;2023-12-22T18:37:51;6.13;;;1.50;;
9128;SDS011;4599;50.906;6.786;2023-12-22T18:41:54;6.97;;;1.50;;
9128;SDS011;4599;50.906;6.786;2023-12-22T18:45:55;8.80;;;1.53;;
9128;SDS011;4599;50.906;6.786;2023-12-22T18:49:57;6.43;;;1.70;;
9128;SDS011;4599;50.906;6.786;2023-12-22T18:54:00;7.40;;;1.73;;
9128;SDS011;4599;50.906;6.786;2023-12-22T18:58:02;6.13;;;1.30;;
9128;SDS011;4599;50.906;6.786;2023-12-22T19:02:04;9.77;;;2.00;;
9128;SDS011;4599;50.906;6.786;2023-12-22T19:06:26;6.33;;;1.63;;
9128;SDS011;4599;50.906;6.786;2023-12-22T19:10:28;6.63;;;1.70;;
9128;SDS011;4599;50.906;6.786;2023-12-22T19:14:31;9.30;;;1.80;;
9128;SDS011;4599;50.906;6.786;2023-12-22T19:18:33;6.60;;;1.77;;
9128;SDS011;4599;50.906;6.786;2023-12-22T19:22:35;8.67;;;1.77;;
9128;SDS011;4599;50.906;6.786;2023-12-22T19:26:37;4.40;;;1.40;;
9128;SDS011;4599;50.906;6.786;2023-12-22T19:30:39;6.13;;;1.40;;
9128;SDS011;4599;50.906;6.786;2023-12-22T19:34:40;9.60;;;1.73;;
9128;SDS011;4599;50.906;6.786;2023-12-22T19:38:42;10.23;;;1.80;;
9128;SDS011;4599;50.906;6.786;2023-12-22T19:42:45;4.40;;;1.50;;
9128;SDS011;4599;50.906;6.786;2023-12-22T19:46:47;7.27;;;1.70;;
9128;SDS011;4599;50.906;6.786;2023-12-22T19:50:48;5.50;;;1.73;;
9128;SDS011;4599;50.906;6.786;2023-12-22T19:54:50;9.47;;;2.03;;
9128;SDS011;4599;50.906;6.786;2023-12-22T19:58:53;6.73;;;1.70;;
9128;SDS011;4599;50.906;6.786;2023-12-22T20:02:55;5.70;;;1.40;;
9128;SDS011;4599;50.906;6.786;2023-12-22T20:06:56;4.30;;;1.50;;
9128;SDS011;4599;50.906;6.786;2023-12-22T20:10:58;6.40;;;1.70;;
9128;SDS011;4599;50.906;6.786;2023-12-22T20:15:01;3.77;;;1.47;;
9128;SDS011;4599;50.906;6.786;2023-12-22T20:19:02;6.10;;;1.40;;
9128;SDS011;4599;50.906;6.786;2023-12-22T20:23:04;3.83;;;1.47;;
9128;SDS011;4599;50.906;6.786;2023-12-22T20:27:06;5.70;;;1.40;;
9128;SDS011;4599;50.906;6.786;2023-12-22T20:31:09;7.03;;;1.50;;
9128;SDS011;4599;50.906;6.786;2023-12-22T20:35:10;4.80;;;1.47;;
9128;SDS011;4599;50.906;6.786;2023-12-22T20:39:12;8.73;;;1.60;;
9128;SDS011;4599;50.906;6.786;2023-12-22T20:43:13;5.00;;;1.47;;
9128;SDS011;4599;50.906;6.786;2023-12-22T20:47:16;4.27;;;1.37;;
9128;SDS011;4599;50.906;6.786;2023-12-22T20:51:18;4.47;;;1.40;;
9128;SDS011;4599;50.906;6.786;2023-12-22T20:55:20;5.47;;;1.60;;
9128;SDS011;4599;50.906;6.786;2023-12-22T20:59:21;4.50;;;1.60;;
9128;SDS011;4599;50.906;6.786;2023-12-22T21:03:25;4.60;;;1.50;;
9128;SDS011;4599;50.906;6.786;2023-12-22T21:07:26;7.17;;;1.70;;
9128;SDS011;4599;50.906;6.786;2023-12-22T21:11:28;4.27;;;1.47;;
9128;SDS011;4599;50.906;6.786;2023-12-22T21:15:29;7.67;;;1.60;;
9128;SDS011;4599;50.906;6.786;2023-12-22T21:19:32;3.50;;;1.50;;
9128;SDS011;4599;50.906;6.786;2023-12-22T21:23:33;9.33;;;2.30;;
9128;SDS011;4599;50.906;6.786;2023-12-22T21:27:35;5.57;;;1.53;;
9128;SDS011;4599;50.906;6.786;2023-12-22T21:31:40;8.13;;;1.67;;
9128;SDS011;4599;50.906;6.786;2023-12-22T21:35:44;6.67;;;1.60;;
9128;SDS011;4599;50.906;6.786;2023-12-22T21:39:46;7.37;;;1.47;;
9128;SDS011;4599;50.906;6.786;2023-12-22T21:43:48;5.27;;;1.37;;
9128;SDS011;4599;50.906;6.786;2023-12-22T21:47:49;3.13;;;1.30;;
9128;SDS011;4599;50.906;6.786;2023-12-22T21:51:53;6.27;;;1.73;;
9128;SDS011;4599;50.906;6.786;2023-12-22T21:55:54;7.10;;;1.40;;
9128;SDS011;4599;50.906;6.786;2023-12-22T21:59:56;7.13;;;1.40;;
9128;SDS011;4599;50.906;6.786;2023-12-22T22:03:59;6.03;;;1.77;;
9128;SDS011;4599;50.906;6.786;2023-12-22T22:08:02;5.10;;;1.60;;
9128;SDS011;4599;50.906;6.786;2023-12-22T22:12:04;7.67;;;1.87;;
9128;SDS011;4599;50.906;6.786;2023-12-22T22:16:06;6.30;;;1.70;;
9128;SDS011;4599;50.906;6.786;2023-12-22T22:20:09;5.20;;;1.47;;
9128;SDS011;4599;50.906;6.786;2023-12-22T22:24:12;6.90;;;1.50;;
9128;SDS011;4599;50.906;6.786;2023-12-22T22:28:14;2.73;;;1.00;;
9128;SDS011;4599;50.906;6.786;2023-12-22T22:32:16;5.17;;;1.17;;
9128;SDS011;4599;50.906;6.786;2023-12-22T22:36:17;5.63;;;1.27;;
9128;SDS011;4599;50.906;6.786;2023-12-22T22:40:20;3.03;;;0.80;;
9128;SDS011;4599;50.906;6.786;2023-12-22T22:44:22;4.23;;;1.30;;
9128;SDS011;4599;50.906;6.786;2023-12-22T22:48:23;5.00;;;1.13;;
9128;SDS011;4599;50.906;6.786;2023-12-22T22:52:25;5.73;;;1.50;;
9128;SDS011;4599;50.906;6.786;2023-12-22T22:56:28;2.27;;;1.03;;
9128;SDS011;4599;50.906;6.786;2023-12-22T23:00:29;2.53;;;1.10;;
9128;SDS011;4599;50.906;6.786;2023-12-22T23:04:31;2.93;;;0.87;;
9128;SDS011;4599;50.906;6.786;2023-12-22T23:08:32;7.00;;;1.17;;
9128;SDS011;4599;50.906;6.786;2023-12-22T23:12:35;3.47;;;1.07;;
9128;SDS011;4599;50.906;6.786;2023-12-22T23:16:37;3.77;;;1.00;;
9128;SDS011;4599;50.906;6.786;2023-12-22T23:20:39;4.27;;;1.00;;
9128;SDS011;4599;50.906;6.786;2023-12-22T23:24:41;3.43;;;1.00;;
9128;SDS011;4599;50.906;6.786;2023-12-22T23:28:44;4.07;;;0.90;;
9128;SDS011;4599;50.906;6.786;2023-12-22T23:32:46;5.43;;;1.00;;
9128;SDS011;4599;50.906;6.786;2023-12-22T23:36:47;3.73;;;1.10;;
9128;SDS011;4599;50.906;6.786;2023-12-22T23:40:49;3.77;;;0.80;;
9128;SDS011;4599;50.906;6.786;2023-12-22T23:44:52;6.37;;;0.93;;
9128;SDS011;4599;50.906;6.786;2023-12-22T23:48:53;5.07;;;1.17;;
9128;SDS011;4599;50.906;6.786;2023-12-22T23:52:55;4.23;;;1.33;;
9128;SDS011;4599;50.906;6.786;2023-12-22T23:56:57;5.37;;;1.40;;
